Time;durP1;ratioP1;P1;durP2;ratioP2;P2;SDS_P1;SDS_P2;PMS_P1;PMS_P2;Temp;Humidity;BMP_temperature;BMP_pressure;BME280_temperature;BME280_humidity;BME280_pressure;Samples;Min_cycle;Max_cycle;Signal;HPM_P1;HPM_P2
2022/03/30 00:02:18;;;;;;;18.17;12.20;;;;;;;10.36;81.66;100042.84;5040008;28;20042;-73
2022/03/30 00:04:43;;;;;;;17.38;11.70;;;;;;;10.26;82.00;100026.16;5008983;28;20029;-70
2022/03/30 00:07:09;;;;;;;19.40;11.98;;;;;;;10.41;81.59;100040.41;5007608;28;20516;-72
2022/03/30 00:09:34;;;;;;;18.85;11.48;;;;;;;10.39;80.84;100031.75;5009367;28;20074;-73
2022/03/30 00:12:00;;;;;;;17.80;11.70;;;;;;;10.07;80.80;99975.72;5009508;28;20030;-74
2022/03/30 00:14:26;;;;;;;18.42;12.18;;;;;;;10.29;80.82;100023.69;5008686;28;20095;-72
2022/03/30 00:16:51;;;;;;;19.35;11.75;;;;;;;10.01;80.01;99965.22;5010037;28;20045;-72
2022/03/30 00:19:18;;;;;;;18.90;11.40;;;;;;;10.37;79.29;100023.97;5008706;28;20038;-72
2022/03/30 00:21:44;;;;;;;14.77;11.23;;;;;;;10.40;78.81;100028.34;5009443;28;20037;-74
2022/03/30 00:24:10;;;;;;;19.98;11.32;;;;;;;10.43;78.91;100018.97;5010111;28;20100;-74
2022/03/30 00:26:35;;;;;;;18.25;11.93;;;;;;;10.52;78.47;100024.41;5010066;28;20030;-75
2022/03/30 00:29:03;;;;;;;17.65;11.82;;;;;;;10.28;78.63;99980.66;5009736;28;20026;-72
2022/03/30 00:31:28;;;;;;;17.65;10.95;;;;;;;10.58;78.82;100030.56;5010111;28;20504;-73
2022/03/30 00:33:54;;;;;;;20.08;11.07;;;;;;;10.38;78.79;99991.28;5009955;28;20066;-76
2022/03/30 00:36:19;;;;;;;16.90;11.48;;;;;;;10.59;78.69;100028.06;5009667;28;20033;-73
2022/03/30 00:38:45;;;;;;;16.25;11.43;;;;;;;10.59;78.87;100022.91;5009855;28;20026;-75
2022/03/30 00:41:11;;;;;;;20.13;11.88;;;;;;;10.49;78.62;100018.28;5007670;28;20054;-72
2022/03/30 00:43:36;;;;;;;19.20;11.63;;;;;;;10.01;78.82;100009.06;5009713;28;20084;-75
2022/03/30 00:46:02;;;;;;;25.40;12.30;;;;;;;9.78;80.06;100011.78;5010210;28;20034;-75
2022/03/30 00:48:28;;;;;;;17.25;13.15;;;;;;;9.58;81.00;100008.50;5013550;28;20080;-75
2022/03/30 00:50:53;;;;;;;17.95;11.40;;;;;;;9.54;81.67;100009.25;5012894;28;20034;-76
2022/03/30 00:53:19;;;;;;;16.40;11.35;;;;;;;9.50;81.23;100016.00;5014002;28;20029;-74
2022/03/30 00:55:45;;;;;;;18.30;12.30;;;;;;;9.46;81.57;100019.28;5013511;28;20033;-73
2022/03/30 00:58:11;;;;;;;19.85;12.80;;;;;;;9.49;81.57;100013.38;5012747;28;20034;-77
2022/03/30 01:00:37;;;;;;;16.42;12.25;;;;;;;9.28;82.28;100004.06;5012071;28;20033;-77
2022/03/30 01:03:03;;;;;;;20.77;12.32;;;;;;;9.06;82.16;100008.47;5012755;28;20083;-78
2022/03/30 01:05:29;;;;;;;20.30;12.73;;;;;;;8.94;82.83;100009.75;5012375;28;20042;-76
2022/03/30 01:07:58;;;;;;;18.88;11.75;;;;;;;8.73;83.62;100002.97;5012667;28;20092;-77
2022/03/30 01:10:24;;;;;;;17.25;12.02;;;;;;;8.61;83.61;99961.34;5012431;28;20058;-75
2022/03/30 01:12:52;;;;;;;17.02;12.02;;;;;;;9.13;83.31;100008.69;5012864;28;20029;-77
2022/03/30 01:15:18;;;;;;;16.83;11.55;;;;;;;9.19;83.54;100004.63;5012594;28;20025;-77
2022/03/30 01:17:43;;;;;;;16.30;11.15;;;;;;;9.16;83.01;99983.94;5012862;28;20025;-77
2022/03/30 01:20:10;;;;;;;17.92;11.50;;;;;;;8.96;82.71;99954.91;5012156;28;20026;-75
2022/03/30 01:22:36;;;;;;;17.85;11.85;;;;;;;8.95;82.16;99998.59;5012161;28;20109;-77
2022/03/30 01:25:03;;;;;;;24.17;12.10;;;;;;;8.72;82.87;99966.09;5012704;28;20612;-76
2022/03/30 01:27:28;;;;;;;22.80;11.98;;;;;;;8.88;82.45;99980.41;5012848;28;20485;-75
2022/03/30 01:32:41;;;;;;;16.95;11.40;;;;;;;8.96;79.65;99956.59;5011644;28;20620;-74
2022/03/30 01:35:07;;;;;;;17.10;10.60;;;;;;;9.15;80.70;99978.72;5012372;28;20049;-74
2022/03/30 01:37:32;;;;;;;18.38;10.40;;;;;;;9.20;81.23;99988.34;5012299;28;20041;-75
2022/03/30 01:40:00;;;;;;;19.48;11.20;;;;;;;9.35;81.07;99989.72;5011844;28;20413;-76
2022/03/30 01:42:27;;;;;;;18.65;10.30;;;;;;;9.43;78.83;99985.69;5025553;28;20103;-77
2022/03/30 01:44:53;;;;;;;16.23;11.23;;;;;;;9.48;78.31;99993.56;5011985;28;20123;-75
2022/03/30 01:47:20;;;;;;;16.02;10.82;;;;;;;9.50;79.04;99989.34;5011827;28;20073;-78
2022/03/30 01:49:46;;;;;;;20.75;10.88;;;;;;;9.36;78.95;99988.91;5011688;28;20153;-77
2022/03/30 01:52:13;;;;;;;17.73;11.05;;;;;;;9.00;79.05;99941.31;5011324;28;20029;-77
2022/03/30 01:54:40;;;;;;;15.88;10.50;;;;;;;9.30;78.52;99996.41;5011749;28;20406;-75
2022/03/30 01:57:07;;;;;;;17.40;10.95;;;;;;;9.32;78.26;100007.63;5010445;28;20026;-76
2022/03/30 01:59:33;;;;;;;16.73;10.63;;;;;;;9.38;78.17;100010.41;5011340;28;20073;-76
2022/03/30 02:01:59;;;;;;;18.20;10.02;;;;;;;9.40;77.57;100001.06;5009364;28;20038;-78
2022/03/30 02:04:25;;;;;;;19.48;11.40;;;;;;;9.46;77.72;100003.84;5011589;28;20072;-75
2022/03/30 02:06:51;;;;;;;18.17;11.40;;;;;;;9.54;77.19;100015.28;5011820;28;20463;-75
2022/03/30 02:09:17;;;;;;;14.63;10.18;;;;;;;9.53;77.60;100007.47;5012927;28;20034;-74
2022/03/30 02:11:42;;;;;;;19.63;11.60;;;;;;;9.43;77.15;100002.84;5011056;28;20042;-76
2022/03/30 02:14:08;;;;;;;16.02;10.63;;;;;;;9.45;76.00;100012.38;5011138;28;20026;-77
2022/03/30 02:16:34;;;;;;;16.55;11.15;;;;;;;9.27;75.88;99988.56;5010879;28;20537;-77
2022/03/30 02:19:00;;;;;;;20.52;11.73;;;;;;;9.18;75.25;99982.28;5011179;28;20049;-77
2022/03/30 02:21:26;;;;;;;16.35;10.80;;;;;;;9.27;74.54;100006.59;5009425;28;20106;-77
2022/03/30 02:23:51;;;;;;;14.73;11.02;;;;;;;9.15;74.82;99984.75;5011094;28;20425;-79
2022/03/30 02:26:18;;;;;;;20.15;11.00;;;;;;;9.30;75.11;99986.13;5011000;28;20022;-77
2022/03/30 02:28:51;;;;;;;16.33;10.77;;;;;;;9.05;75.27;99969.81;5009505;28;20033;-74
2022/03/30 02:31:18;;;;;;;19.58;10.60;;;;;;;9.00;77.14;100007.41;5010676;28;20021;-76
2022/03/30 02:33:44;;;;;;;17.52;11.27;;;;;;;9.03;78.17;100005.81;5010678;28;20087;-76
2022/03/30 02:36:09;;;;;;;18.23;11.63;;;;;;;8.96;77.33;99974.63;5011187;28;20057;-77
2022/03/30 02:38:34;;;;;;;15.52;11.10;;;;;;;9.20;76.20;100010.66;5010908;28;20036;-77
2022/03/30 02:41:01;;;;;;;16.92;10.80;;;;;;;9.04;77.44;99978.34;5011108;28;20434;-78
2022/03/30 02:43:26;;;;;;;18.10;11.10;;;;;;;9.16;77.69;100008.78;5010192;28;20501;-75
2022/03/30 02:45:52;;;;;;;15.32;10.85;;;;;;;9.05;78.63;100021.31;5010886;28;20061;-73
2022/03/30 02:48:22;;;;;;;15.07;10.70;;;;;;;9.07;77.29;100019.63;5011352;28;20021;-77
2022/03/30 02:50:52;;;;;;;17.02;10.73;;;;;;;8.93;77.31;100010.56;5011236;28;20392;-79
2022/03/30 02:53:19;;;;;;;18.30;10.60;;;;;;;8.83;78.53;100012.78;5009934;28;20022;-75
2022/03/30 02:55:45;;;;;;;14.27;10.85;;;;;;;8.50;79.63;100027.84;5010879;28;20026;-74
2022/03/30 02:58:11;;;;;;;15.32;11.20;;;;;;;8.20;81.57;100030.94;5011014;28;20071;-74
2022/03/30 03:00:38;;;;;;;18.67;12.27;;;;;;;8.10;82.52;100037.44;5011215;28;20104;-74
2022/03/30 03:03:04;;;;;;;17.73;11.77;;;;;;;8.22;82.05;100045.66;5010555;28;20045;-72
2022/03/30 03:05:34;;;;;;;16.90;11.13;;;;;;;8.30;81.54;100034.75;5008193;28;20641;-71
2022/03/30 03:08:04;;;;;;;20.45;11.65;;;;;;;8.10;82.00;100032.31;5008331;28;20073;-74
2022/03/30 03:10:31;;;;;;;19.25;11.80;;;;;;;7.87;83.47;100027.09;5006829;28;20054;-71
2022/03/30 03:12:57;;;;;;;19.23;12.23;;;;;;;7.71;86.16;100017.00;5008359;28;20037;-72
2022/03/30 03:15:23;;;;;;;17.58;11.85;;;;;;;7.47;87.39;99984.34;5008208;28;20041;-75
2022/03/30 03:17:49;;;;;;;20.90;12.63;;;;;;;7.75;88.10;100022.34;5008377;28;20501;-71
2022/03/30 03:20:15;;;;;;;16.40;11.63;;;;;;;7.90;88.59;100024.66;5008285;28;20034;-71
2022/03/30 03:22:41;;;;;;;20.55;11.45;;;;;;;7.89;88.82;100030.63;5008188;28;20057;-74
2022/03/30 03:25:09;;;;;;;15.90;11.35;;;;;;;7.83;88.72;100020.09;5007803;28;20101;-74
2022/03/30 03:27:34;;;;;;;22.15;13.27;;;;;;;7.86;88.47;100022.78;5008070;28;20034;-72
2022/03/30 03:30:00;;;;;;;20.33;12.32;;;;;;;7.78;88.21;100007.03;5008172;28;20515;-74
2022/03/30 03:32:26;;;;;;;17.90;12.05;;;;;;;7.89;87.74;100022.91;5007982;28;20123;-71
2022/03/30 03:34:51;;;;;;;16.60;12.00;;;;;;;7.95;87.03;100030.00;5008294;28;20112;-74
2022/03/30 03:37:17;;;;;;;19.23;12.27;;;;;;;7.88;87.08;100025.41;5010024;28;20070;-73
2022/03/30 03:39:43;;;;;;;17.73;12.00;;;;;;;7.79;87.15;100028.50;5010356;28;20037;-74
2022/03/30 03:42:08;;;;;;;15.95;12.40;;;;;;;7.54;88.45;100004.34;5010818;28;20038;-72
2022/03/30 03:44:34;;;;;;;20.67;13.45;;;;;;;7.56;89.02;100018.16;5010551;28;20040;-74
2022/03/30 03:46:59;;;;;;;21.63;12.38;;;;;;;7.46;90.35;100018.56;5010635;28;20034;-75
2022/03/30 03:49:25;;;;;;;19.02;12.95;;;;;;;7.39;91.08;100021.66;5010280;28;20386;-71
2022/03/30 03:51:50;;;;;;;18.05;12.48;;;;;;;7.32;91.07;100017.97;5009867;28;20401;-74
2022/03/30 03:54:16;;;;;;;21.67;12.00;;;;;;;7.33;90.71;100013.69;5009052;28;20567;-73
2022/03/30 03:56:42;;;;;;;22.02;12.35;;;;;;;7.36;90.65;100019.00;5009940;28;20021;-71
2022/03/30 03:59:07;;;;;;;21.27;12.98;;;;;;;7.31;90.66;100021.34;5010000;28;20025;-74
2022/03/30 04:01:34;;;;;;;18.73;12.93;;;;;;;7.16;91.55;100018.13;5009650;28;20030;-74
2022/03/30 04:03:59;;;;;;;24.90;14.20;;;;;;;7.05;92.58;100028.81;5010228;28;20111;-72
2022/03/30 04:06:25;;;;;;;21.13;14.25;;;;;;;6.76;93.21;99983.91;5010025;28;20038;-76
2022/03/30 04:08:50;;;;;;;19.60;13.88;;;;;;;6.91;94.06;100024.75;5009985;28;20053;-77
2022/03/30 04:11:16;;;;;;;21.17;14.27;;;;;;;6.83;94.58;100018.38;5009825;28;20413;-77
2022/03/30 04:13:42;;;;;;;20.10;13.90;;;;;;;6.80;94.94;100021.69;5010289;28;20117;-77
2022/03/30 04:16:07;;;;;;;18.23;14.27;;;;;;;6.83;95.28;100023.53;5010473;28;20030;-76
2022/03/30 04:18:33;;;;;;;22.10;12.75;;;;;;;6.76;95.73;100028.38;5009715;28;20109;-72
2022/03/30 04:20:58;;;;;;;21.80;14.40;;;;;;;6.80;95.56;100027.72;5011680;28;20034;-75
2022/03/30 04:23:23;;;;;;;21.17;15.00;;;;;;;6.83;95.61;100039.81;5013087;28;20507;-75
2022/03/30 04:25:49;;;;;;;19.95;14.70;;;;;;;6.87;96.01;100041.69;5013572;28;20045;-73
2022/03/30 04:28:17;;;;;;;19.83;14.52;;;;;;;6.94;95.71;100038.59;5013935;28;20156;-75
2022/03/30 04:30:44;;;;;;;18.80;13.60;;;;;;;6.99;95.17;100040.47;5014109;28;20115;-72
2022/03/30 04:33:09;;;;;;;21.75;14.88;;;;;;;6.92;94.67;100040.22;5013932;28;20032;-76
2022/03/30 04:35:36;;;;;;;22.45;13.40;;;;;;;6.91;95.11;100038.44;5010637;28;20050;-74
2022/03/30 04:38:02;;;;;;;21.88;14.60;;;;;;;6.96;94.13;100036.97;5012616;28;20103;-74
2022/03/30 04:40:28;;;;;;;25.27;14.63;;;;;;;6.90;95.04;100057.25;5013384;28;20022;-75
2022/03/30 04:42:55;;;;;;;21.25;14.32;;;;;;;6.63;97.23;100062.88;5013173;28;20156;-73
2022/03/30 04:45:21;;;;;;;24.27;14.65;;;;;;;6.55;98.33;100061.63;5013203;28;20033;-71
2022/03/30 04:47:47;;;;;;;22.05;15.65;;;;;;;6.58;99.26;100072.03;5013196;28;20026;-73
2022/03/30 04:50:13;;;;;;;19.88;15.95;;;;;;;6.55;99.15;100058.19;5012769;28;20108;-73
2022/03/30 04:52:40;;;;;;;26.15;16.35;;;;;;;6.82;98.70;100062.81;5012471;28;20640;-71
2022/03/30 04:55:07;;;;;;;29.27;17.10;;;;;;;7.09;97.86;100060.59;5012841;28;20037;-74
2022/03/30 04:57:33;;;;;;;24.25;17.05;;;;;;;7.23;96.57;100063.81;5013015;28;20030;-76
2022/03/30 04:59:58;;;;;;;59.72;34.88;;;;;;;7.43;95.84;100075.81;5012956;28;20088;-75
2022/03/30 05:02:25;;;;;;;30.75;19.70;;;;;;;7.47;95.02;100076.81;5012924;28;20117;-72
2022/03/30 05:04:50;;;;;;;26.27;18.35;;;;;;;7.33;95.79;100071.09;5013086;28;20022;-74
2022/03/30 05:07:16;;;;;;;28.42;20.20;;;;;;;7.38;96.24;100076.44;5012275;28;20026;-74
2022/03/30 05:09:41;;;;;;;31.52;21.38;;;;;;;7.43;95.75;100057.81;5012864;28;20053;-77
2022/03/30 05:12:07;;;;;;;27.85;19.45;;;;;;;7.60;95.35;100066.25;5013251;28;20080;-74
2022/03/30 05:14:33;;;;;;;24.60;18.48;;;;;;;7.59;95.00;100056.78;5012666;28;20038;-75
2022/03/30 05:16:59;;;;;;;23.88;17.60;;;;;;;7.61;95.12;100055.19;5013356;28;20040;-74
2022/03/30 05:19:25;;;;;;;25.02;18.20;;;;;;;7.78;94.63;100062.72;5013453;28;20030;-71
2022/03/30 05:21:51;;;;;;;26.77;18.95;;;;;;;7.94;94.18;100059.94;5012396;28;20037;-74
2022/03/30 05:24:16;;;;;;;26.02;18.83;;;;;;;8.10;93.42;100070.88;5012746;28;20084;-75
2022/03/30 05:26:42;;;;;;;26.63;16.95;;;;;;;7.74;93.42;100036.00;5012396;28;20035;-76
2022/03/30 05:29:07;;;;;;;30.30;17.35;;;;;;;7.87;94.64;100064.78;5011745;28;20398;-74
2022/03/30 05:31:33;;;;;;;22.70;17.35;;;;;;;7.76;95.75;100072.03;5011953;28;20033;-75
2022/03/30 05:33:58;;;;;;;24.38;16.63;;;;;;;7.50;97.49;100052.94;5011618;28;20030;-71
2022/03/30 05:36:24;;;;;;;23.70;17.42;;;;;;;7.52;98.20;100054.78;5011815;28;20021;-73
2022/03/30 05:38:50;;;;;;;24.98;17.42;;;;;;;7.76;98.05;100077.19;5012277;28;20100;-75
2022/03/30 05:41:17;;;;;;;25.60;16.67;;;;;;;7.52;97.20;100026.53;5016840;28;20025;-75
2022/03/30 05:43:43;;;;;;;26.00;16.40;;;;;;;7.95;96.87;100076.28;5031626;28;20083;-74
2022/03/30 05:46:09;;;;;;;23.33;17.25;;;;;;;8.14;95.23;100074.41;5032490;28;20489;-74
2022/03/30 05:48:35;;;;;;;22.98;16.67;;;;;;;8.37;95.21;100075.34;5047352;28;20066;-74
2022/03/30 05:51:00;;;;;;;26.70;16.80;;;;;;;8.47;94.63;100066.34;5032060;28;20120;-74
2022/03/30 05:53:26;;;;;;;23.60;17.83;;;;;;;8.51;94.38;100033.06;5031856;28;20108;-74
2022/03/30 05:55:52;;;;;;;29.30;18.48;;;;;;;8.93;93.56;100086.09;5032207;28;20033;-75
2022/03/30 05:58:17;;;;;;;22.88;17.05;;;;;;;9.01;92.33;100068.34;5032178;28;20026;-73
2022/03/30 06:00:43;;;;;;;22.67;18.00;;;;;;;9.19;92.15;100075.88;5031881;28;20404;-76
2022/03/30 06:03:10;;;;;;;26.02;16.25;;;;;;;9.40;91.62;100075.78;5031347;28;20037;-75
2022/03/30 06:05:36;;;;;;;24.13;17.17;;;;;;;9.50;91.13;100067.53;5030899;28;20041;-75
2022/03/30 06:08:02;;;;;;;21.90;16.80;;;;;;;9.62;91.46;100066.19;5031766;28;20754;-75
2022/03/30 06:10:29;;;;;;;21.27;16.27;;;;;;;9.77;91.10;100068.41;5031662;28;20053;-75
2022/03/30 06:12:55;;;;;;;24.15;16.10;;;;;;;9.99;89.52;100063.16;5032065;28;20033;-75
2022/03/30 06:15:22;;;;;;;20.63;14.65;;;;;;;9.96;86.63;100023.50;5032093;28;20034;-72
2022/03/30 06:17:48;;;;;;;21.13;12.55;;;;;;;10.35;85.17;100065.16;5032025;28;20086;-75
2022/03/30 06:20:16;;;;;;;15.13;12.23;;;;;;;10.58;83.90;100079.63;5031351;28;20029;-72
2022/03/30 06:22:41;;;;;;;20.50;11.60;;;;;;;10.60;82.33;100060.75;5030625;28;20041;-74
2022/03/30 06:25:11;;;;;;;19.50;12.07;;;;;;;10.78;82.40;100075.06;5031898;28;20033;-75
2022/03/30 06:27:38;;;;;;;20.15;12.95;;;;;;;10.95;81.77;100080.72;5031938;28;20029;-75
2022/03/30 06:30:05;;;;;;;22.90;10.77;;;;;;;11.07;81.00;100081.09;5031893;28;20033;-75
2022/03/30 06:32:31;;;;;;;19.13;11.80;;;;;;;11.16;80.53;100085.63;5031118;28;20041;-74
2022/03/30 06:34:56;;;;;;;17.38;10.55;;;;;;;11.32;79.65;100079.19;5031456;28;20103;-72
2022/03/30 06:37:22;;;;;;;16.83;10.20;;;;;;;11.51;77.62;100071.94;5031478;28;20040;-76
2022/03/30 06:39:49;;;;;;;19.58;9.82;;;;;;;11.53;77.63;100078.03;5030042;28;20508;-75
2022/03/30 06:42:16;;;;;;;14.82;9.80;;;;;;;11.66;77.35;100082.66;5031253;28;20057;-72
2022/03/30 06:44:42;;;;;;;18.35;10.60;;;;;;;11.71;76.50;100062.13;5031318;28;20022;-71
2022/03/30 06:47:08;;;;;;;15.90;9.82;;;;;;;11.88;76.12;100072.91;5031212;28;20045;-71
2022/03/30 06:49:34;;;;;;;16.40;9.98;;;;;;;12.13;75.68;100093.38;5031775;28;20740;-71
2022/03/30 06:52:01;;;;;;;20.25;10.43;;;;;;;12.27;74.57;100087.66;5030032;28;20036;-74
2022/03/30 06:54:26;;;;;;;20.27;10.63;;;;;;;12.40;74.19;100099.19;5031013;28;20083;-73
2022/03/30 06:56:52;;;;;;;17.52;10.00;;;;;;;12.48;73.35;100092.47;5031146;28;20497;-71
2022/03/30 06:59:18;;;;;;;20.88;9.68;;;;;;;12.58;73.09;100093.56;5030786;28;20038;-72
2022/03/30 07:01:44;;;;;;;18.35;10.07;;;;;;;12.51;72.64;100050.25;5030641;28;20032;-72
2022/03/30 07:04:10;;;;;;;25.40;13.75;;;;;;;12.85;73.01;100097.63;5031073;28;20041;-72
2022/03/30 07:06:36;;;;;;;18.92;10.82;;;;;;;13.00;71.58;100084.97;5029668;28;20033;-74
2022/03/30 07:11:45;;;;;;;16.98;9.38;;;;;;;13.28;71.25;100075.16;5031008;28;20041;-73
2022/03/30 07:14:11;;;;;;;20.70;10.07;;;;;;;13.34;70.51;100077.00;5029301;28;20037;-74
2022/03/30 07:16:36;;;;;;;22.23;9.70;;;;;;;13.44;71.03;100073.78;5031060;28;20037;-74
2022/03/30 07:19:02;;;;;;;15.57;9.32;;;;;;;13.57;69.56;100080.03;5030543;28;20025;-75
2022/03/30 07:21:27;;;;;;;20.02;9.60;;;;;;;13.66;69.28;100085.41;5030921;28;20472;-75
2022/03/30 07:23:53;;;;;;;16.83;8.85;;;;;;;13.76;68.13;100078.69;5030784;28;20604;-75
2022/03/30 07:26:18;;;;;;;16.60;9.68;;;;;;;13.78;68.04;100057.94;5030795;28;20032;-75
2022/03/30 07:28:44;;;;;;;18.98;8.93;;;;;;;13.89;66.82;100059.88;5030560;28;20420;-73
2022/03/30 07:31:09;;;;;;;19.23;8.75;;;;;;;14.19;67.26;100091.50;5030928;28;20033;-75
2022/03/30 07:33:35;;;;;;;16.13;8.68;;;;;;;14.34;66.11;100091.75;5030531;28;20021;-73
2022/03/30 07:36:01;;;;;;;20.02;8.88;;;;;;;14.41;65.22;100097.91;5030637;28;20535;-75
2022/03/30 07:38:26;;;;;;;14.40;8.13;;;;;;;14.44;66.08;100087.53;5030695;28;20032;-73
2022/03/30 07:40:53;;;;;;;14.20;9.00;;;;;;;14.39;65.12;100063.22;5030712;28;20051;-72
2022/03/30 07:43:19;;;;;;;17.35;8.82;;;;;;;14.54;64.50;100068.66;5030253;28;20025;-75
2022/03/30 07:45:45;;;;;;;14.40;8.38;;;;;;;14.91;64.47;100104.69;5030187;28;20030;-75
2022/03/30 07:48:12;;;;;;;15.82;8.30;;;;;;;14.96;61.88;100109.97;5030496;28;20032;-75
2022/03/30 07:50:38;;;;;;;15.93;7.90;;;;;;;14.98;61.10;100075.34;5030641;28;20108;-75
2022/03/30 07:53:07;;;;;;;16.35;8.43;;;;;;;15.28;59.91;100102.56;5030195;28;20420;-75
2022/03/30 07:55:34;;;;;;;12.90;7.78;;;;;;;15.37;60.53;100100.06;5030920;28;20576;-72
2022/03/30 07:58:00;;;;;;;15.10;8.00;;;;;;;15.49;60.18;100101.09;5034473;28;20080;-76
2022/03/30 08:00:26;;;;;;;20.50;9.05;;;;;;;15.60;61.04;100095.97;5034570;28;20057;-74
2022/03/30 08:02:52;;;;;;;15.55;7.68;;;;;;;15.62;60.08;100097.72;5034342;28;20025;-73
2022/03/30 08:05:17;;;;;;;17.60;8.55;;;;;;;15.68;60.42;100094.31;5034768;28;20041;-76
2022/03/30 08:07:45;;;;;;;16.77;8.88;;;;;;;15.78;58.99;100082.28;5034297;28;20473;-75
2022/03/30 08:10:10;;;;;;;15.98;7.60;;;;;;;15.77;59.13;100084.00;5034153;28;20046;-75
2022/03/30 08:12:37;;;;;;;14.52;8.75;;;;;;;15.81;60.65;100069.28;5033762;28;20034;-72
2022/03/30 08:15:03;;;;;;;14.32;9.25;;;;;;;15.95;61.33;100072.03;5034222;28;20412;-74
2022/03/30 08:17:29;;;;;;;13.13;8.43;;;;;;;16.09;60.14;100070.44;5034042;28;20041;-72
2022/03/30 08:19:57;;;;;;;16.17;8.85;;;;;;;16.17;58.53;100067.88;5034258;28;20037;-75
2022/03/30 08:22:26;;;;;;;16.65;8.80;;;;;;;16.27;59.84;100074.88;5033854;28;20473;-71
2022/03/30 08:24:53;;;;;;;13.88;8.35;;;;;;;16.20;60.58;100070.53;5033636;28;20026;-75
2022/03/30 08:27:21;;;;;;;15.15;8.45;;;;;;;16.15;58.91;100047.03;5033728;28;20033;-76
2022/03/30 08:29:48;;;;;;;20.00;9.25;;;;;;;16.25;59.30;100055.78;5034000;28;20064;-76
2022/03/30 08:32:15;;;;;;;19.33;10.20;;;;;;;16.36;60.04;100074.06;5034062;28;20035;-74
2022/03/30 08:34:41;;;;;;;16.25;8.60;;;;;;;16.48;57.28;100068.94;5033639;28;20032;-74
2022/03/30 08:37:07;;;;;;;17.33;8.48;;;;;;;16.50;56.67;100055.97;5033406;28;20025;-73
2022/03/30 08:39:35;;;;;;;15.02;8.15;;;;;;;16.68;58.94;100075.16;5033868;28;20109;-75
2022/03/30 08:42:02;;;;;;;16.85;8.80;;;;;;;16.84;56.52;100063.94;5033873;28;20036;-77
2022/03/30 08:44:28;;;;;;;18.17;7.88;;;;;;;16.87;56.02;100047.44;5033472;28;20033;-74
2022/03/30 08:46:54;;;;;;;15.13;8.18;;;;;;;16.84;55.58;100032.66;5033918;28;20041;-73
2022/03/30 08:49:20;;;;;;;14.98;8.05;;;;;;;16.80;55.81;100025.69;5033737;28;20033;-76
2022/03/30 08:51:47;;;;;;;17.70;7.63;;;;;;;17.05;55.98;100052.78;5033620;28;20028;-75
2022/03/30 08:54:15;;;;;;;17.95;8.70;;;;;;;17.22;55.38;100052.84;5033069;28;20029;-77
2022/03/30 08:56:41;;;;;;;15.57;8.25;;;;;;;17.48;54.32;100049.41;5032280;28;20025;-72
2022/03/30 08:59:11;;;;;;;16.95;8.43;;;;;;;17.38;52.72;100014.59;5033386;28;20040;-76
2022/03/30 09:01:39;;;;;;;15.77;7.80;;;;;;;17.58;54.48;100032.91;5033536;28;20063;-73
2022/03/30 09:04:09;;;;;;;14.23;7.85;;;;;;;17.69;54.83;100040.72;5032090;28;20091;-76
2022/03/30 09:06:50;;;;;;;18.92;8.35;;;;;;;17.78;52.59;100027.69;5032829;28;20030;-73
2022/03/30 09:09:27;;;;;;;17.52;8.52;;;;;;;17.85;51.89;100025.09;5033254;28;20080;-73
2022/03/30 09:11:53;;;;;;;21.45;8.43;;;;;;;18.00;51.91;100030.31;5033272;28;20042;-76
2022/03/30 09:14:20;;;;;;;13.80;8.10;;;;;;;17.95;53.57;100008.56;5033257;28;20025;-76
2022/03/30 09:17:07;;;;;;;15.63;7.63;;;;;;;18.14;49.87;100005.94;5032646;28;20021;-75
2022/03/30 09:19:38;;;;;;;16.08;7.88;;;;;;;18.20;47.47;99987.63;5032636;28;20037;-75
2022/03/30 09:22:06;;;;;;;16.65;7.50;;;;;;;18.30;51.08;99991.97;5033036;28;20374;-76
2022/03/30 09:24:35;;;;;;;14.18;8.20;;;;;;;18.20;50.72;99991.09;5032909;28;20401;-73
2022/03/30 09:27:03;;;;;;;15.27;8.07;;;;;;;18.06;49.12;99956.31;5032716;28;20029;-73
2022/03/30 09:29:32;;;;;;;12.73;8.20;;;;;;;18.05;49.98;99962.41;5032690;28;20041;-72
2022/03/30 09:32:03;;;;;;;15.57;7.97;;;;;;;18.30;50.71;99978.03;5032660;28;20037;-75
2022/03/30 09:34:35;;;;;;;20.00;8.13;;;;;;;18.09;50.31;99933.69;5032677;28;20025;-75
2022/03/30 09:37:00;;;;;;;18.08;8.23;;;;;;;18.40;50.26;99964.06;5032801;28;20063;-75
2022/03/30 09:39:37;;;;;;;17.15;7.93;;;;;;;18.47;49.29;99939.66;5032771;28;20490;-72
2022/03/30 09:42:07;;;;;;;15.43;8.10;;;;;;;18.69;48.84;99968.31;5032297;28;20108;-74
2022/03/30 09:44:48;;;;;;;16.13;7.47;;;;;;;18.51;47.94;99894.31;5032723;28;20033;-71
2022/03/30 09:47:14;;;;;;;14.82;7.72;;;;;;;18.89;49.26;99947.28;5032237;28;20063;-73
2022/03/30 09:49:42;;;;;;;16.08;7.35;;;;;;;19.04;48.85;99951.56;5032280;28;20021;-72
2022/03/30 09:52:16;;;;;;;16.05;7.95;;;;;;;19.05;48.23;99941.13;5032294;28;20033;-71
2022/03/30 09:55:04;;;;;;;16.52;7.82;;;;;;;19.22;48.72;99948.00;5031995;28;20041;-74
2022/03/30 09:57:43;;;;;;;14.75;7.47;;;;;;;19.41;48.37;99940.84;5032066;28;20091;-75
2022/03/30 10:00:15;;;;;;;15.73;7.82;;;;;;;19.39;46.89;99937.41;5031877;28;20099;-74
2022/03/30 10:02:42;;;;;;;14.63;7.57;;;;;;;19.58;47.46;99937.22;5032284;28;20049;-74
2022/03/30 10:05:11;;;;;;;12.90;7.65;;;;;;;19.69;46.25;99930.16;5029673;28;20029;-73
2022/03/30 10:07:36;;;;;;;16.35;7.40;;;;;;;19.84;44.88;99929.19;5031705;28;20474;-76
2022/03/30 10:10:04;;;;;;;13.13;7.75;;;;;;;20.00;43.86;99919.38;5020543;28;20081;-75
2022/03/30 10:12:31;;;;;;;17.05;7.70;;;;;;;20.02;45.73;99910.63;5012411;28;20108;-76
2022/03/30 10:14:57;;;;;;;11.77;6.68;;;;;;;20.14;43.56;99912.25;5012325;28;20038;-74
2022/03/30 10:17:24;;;;;;;12.68;7.88;;;;;;;20.15;42.24;99897.38;5010916;28;20092;-71
2022/03/30 10:19:52;;;;;;;15.60;6.80;;;;;;;20.32;44.87;99905.06;5011530;28;20018;-73
2022/03/30 10:22:31;;;;;;;18.92;8.05;;;;;;;20.39;43.60;99880.50;5010457;28;20070;-73
2022/03/30 10:25:14;;;;;;;14.15;7.43;;;;;;;20.38;44.31;99876.16;5012355;28;20033;-76
2022/03/30 10:27:56;;;;;;;12.30;7.43;;;;;;;20.71;43.52;99878.34;5012255;28;20053;-71
2022/03/30 10:30:29;;;;;;;14.88;8.77;;;;;;;20.90;39.14;99869.34;5012247;28;20026;-75
2022/03/30 10:33:00;;;;;;;13.15;7.32;;;;;;;21.09;38.57;99872.53;5012184;28;20486;-72
2022/03/30 10:35:46;;;;;;;16.60;7.75;;;;;;;21.22;37.66;99860.09;5012082;28;20018;-74
2022/03/30 10:38:11;;;;;;;14.30;7.32;;;;;;;21.05;40.54;99839.38;5011899;28;20033;-74
2022/03/30 10:40:38;;;;;;;20.23;7.95;;;;;;;20.90;40.37;99843.09;5012193;28;20025;-74
2022/03/30 10:43:10;;;;;;;17.10;8.38;;;;;;;21.12;40.29;99845.38;5011836;28;20034;-75
2022/03/30 10:46:09;;;;;;;18.27;9.00;;;;;;;21.47;37.42;99844.78;5010525;28;20060;-72
2022/03/30 10:48:37;;;;;;;10.60;7.30;;;;;;;21.40;38.08;99834.41;5011730;28;20044;-74
2022/03/30 10:51:08;;;;;;;17.30;8.18;;;;;;;21.29;40.49;99848.56;5011912;28;20260;-73
2022/03/30 10:53:34;;;;;;;14.60;8.32;;;;;;;21.23;40.88;99843.44;5011740;28;20116;-75
2022/03/30 10:56:09;;;;;;;16.10;8.50;;;;;;;20.94;41.18;99808.03;5011493;28;20036;-75
2022/03/30 10:58:36;;;;;;;16.05;7.57;;;;;;;21.21;39.80;99833.84;5011603;28;20026;-73
2022/03/30 11:01:18;;;;;;;17.15;8.68;;;;;;;21.43;40.19;99837.84;5011592;28;20563;-73
2022/03/30 11:04:00;;;;;;;15.43;8.35;;;;;;;21.56;38.28;99846.41;5011778;28;20026;-75
2022/03/30 11:06:28;;;;;;;14.10;8.05;;;;;;;21.64;37.48;99838.38;5011407;28;20061;-74
2022/03/30 11:08:58;;;;;;;15.20;8.18;;;;;;;21.68;37.27;99833.94;5011592;28;20029;-73
2022/03/30 11:11:43;;;;;;;14.57;9.13;;;;;;;21.87;37.00;99834.41;5011252;28;20517;-73
2022/03/30 11:14:43;;;;;;;16.65;9.05;;;;;;;21.90;38.29;99818.63;5011311;28;20036;-73
2022/03/30 11:17:35;;;;;;;15.98;8.82;;;;;;;21.95;37.14;99808.88;4969974;28;20046;-74
2022/03/30 11:20:05;;;;;;;13.38;7.90;;;;;;;21.96;38.76;99805.34;4969723;28;20074;-75
2022/03/30 11:22:33;;;;;;;15.05;8.63;;;;;;;21.80;38.49;99789.88;4969592;28;20140;-74
2022/03/30 11:25:13;;;;;;;17.02;9.30;;;;;;;21.68;38.10;99802.41;4969985;28;20038;-73
2022/03/30 11:27:40;;;;;;;15.50;9.00;;;;;;;21.67;36.47;99809.44;4969856;28;20434;-73